Time;durP1;ratioP1;P1;durP2;ratioP2;P2;SDS_P1;SDS_P2;PMS_P1;PMS_P2;Temp;Humidity;BMP_temperature;BMP_pressure;BME280_temperature;BME280_humidity;BME280_pressure;Samples;Min_cycle;Max_cycle;Signal;HPM_P1;HPM_P2
2023/07/17 00:01:45;;;;;;;13.65;10.93;;;;;;;27.41;56.21;99073.47;4389033;32;34120;-82
2023/07/17 00:04:13;;;;;;;12.48;11.18;;;;;;;27.41;56.22;99061.97;4388386;32;34717;-82
2023/07/17 00:06:40;;;;;;;15.38;11.00;;;;;;;27.40;56.35;99073.59;4390974;32;33675;-81
2023/07/17 00:09:08;;;;;;;14.15;11.98;;;;;;;27.46;56.48;99077.69;4390824;32;33877;-81
2023/07/17 00:11:36;;;;;;;16.02;12.15;;;;;;;27.29;56.94;99082.19;4390690;32;33952;-81
2023/07/17 00:14:04;;;;;;;13.05;11.65;;;;;;;27.34;56.90;99077.44;4390540;32;35073;-81
2023/07/17 00:16:32;;;;;;;13.77;11.38;;;;;;;27.26;56.89;99082.34;4390888;32;33938;-81
2023/07/17 00:19:00;;;;;;;20.27;13.27;;;;;;;27.35;56.61;99080.97;4390545;32;33258;-81
2023/07/17 00:21:27;;;;;;;15.60;12.50;;;;;;;27.28;56.80;99083.12;4390504;32;33834;-82
2023/07/17 00:23:57;;;;;;;13.95;11.27;;;;;;;27.44;56.29;99082.25;4390520;32;34339;-81
2023/07/17 00:26:24;;;;;;;13.40;12.02;;;;;;;27.44;56.19;99083.09;4390606;32;35098;-81
2023/07/17 00:28:55;;;;;;;15.38;13.38;;;;;;;27.26;56.95;99092.16;4390439;32;33852;-82
2023/07/17 00:31:22;;;;;;;15.25;12.95;;;;;;;27.15;57.27;99088.28;4377034;32;33510;-82
2023/07/17 00:33:50;;;;;;;15.38;13.35;;;;;;;27.13;57.62;99086.66;4390374;32;34043;-81
2023/07/17 00:36:18;;;;;;;12.90;11.60;;;;;;;27.11;57.54;99088.53;4376851;32;33393;-81
2023/07/17 00:38:45;;;;;;;16.98;12.98;;;;;;;27.12;57.33;99091.12;4390808;32;33203;-81
2023/07/17 00:41:13;;;;;;;17.45;12.57;;;;;;;27.03;57.78;99093.41;4390627;32;34069;-87
2023/07/17 00:43:40;;;;;;;14.05;12.60;;;;;;;27.09;57.66;99099.25;4390595;32;33763;-81
2023/07/17 00:46:08;;;;;;;14.00;12.23;;;;;;;27.05;57.58;99092.38;4390545;32;34228;-81
2023/07/17 00:48:36;;;;;;;15.10;12.95;;;;;;;27.16;57.07;99090.00;4389042;32;33540;-81
2023/07/17 00:51:03;;;;;;;18.90;13.02;;;;;;;27.04;57.56;99095.97;4390543;32;34365;-81
2023/07/17 00:53:32;;;;;;;16.25;13.15;;;;;;;27.05;57.50;99092.38;4390547;32;34239;-81
2023/07/17 00:56:00;;;;;;;13.00;11.70;;;;;;;26.99;57.79;99098.03;4389202;32;34955;-81
2023/07/17 00:58:28;;;;;;;14.80;13.23;;;;;;;26.93;58.09;99104.56;4376758;32;33626;-81
2023/07/17 01:00:55;;;;;;;14.82;12.55;;;;;;;26.99;57.65;99103.34;4373136;32;105087;-81
2023/07/17 01:03:25;;;;;;;14.50;13.00;;;;;;;27.08;57.26;99086.87;4377309;32;34235;-81
2023/07/17 01:05:54;;;;;;;17.35;12.70;;;;;;;27.06;57.36;99086.13;4377298;32;32878;-81
2023/07/17 01:08:21;;;;;;;20.92;13.20;;;;;;;26.97;57.48;99083.94;4391372;32;32852;-82
2023/07/17 01:10:50;;;;;;;15.57;13.75;;;;;;;26.95;57.51;99096.50;4377234;32;34447;-81
2023/07/17 01:13:17;;;;;;;13.95;12.52;;;;;;;26.81;57.74;99099.06;4389643;32;34560;-81
2023/07/17 01:15:45;;;;;;;15.35;13.55;;;;;;;26.84;57.64;99097.09;4390840;32;34928;-81
2023/07/17 01:18:13;;;;;;;16.20;14.02;;;;;;;26.87;57.36;99093.41;4390631;32;34742;-81
2023/07/17 01:20:41;;;;;;;16.08;13.02;;;;;;;26.85;57.37;99090.81;4391015;32;34667;-81
2023/07/17 01:23:09;;;;;;;14.35;12.93;;;;;;;26.91;57.12;99092.28;4390975;32;34048;-81
2023/07/17 01:25:38;;;;;;;15.10;13.13;;;;;;;26.89;56.98;99088.84;4389590;32;34582;-81
2023/07/17 01:28:05;;;;;;;15.25;13.65;;;;;;;26.93;56.73;99093.03;4391023;32;33504;-81
2023/07/17 01:30:33;;;;;;;16.67;13.88;;;;;;;26.80;56.90;99087.56;4390968;32;32911;-81
2023/07/17 01:33:00;;;;;;;17.92;12.27;;;;;;;26.68;57.17;99078.44;4390747;32;33700;-81
2023/07/17 01:35:29;;;;;;;16.12;13.35;;;;;;;26.77;56.77;99073.56;4390950;32;34779;-82
2023/07/17 01:37:58;;;;;;;15.95;12.20;;;;;;;26.63;57.22;99074.31;4377647;32;34581;-81
2023/07/17 01:40:27;;;;;;;14.48;12.98;;;;;;;26.75;56.84;99078.97;4390814;32;34109;-81
2023/07/17 01:42:54;;;;;;;14.80;12.43;;;;;;;26.60;57.14;99080.69;4390731;32;34115;-81
2023/07/17 01:45:22;;;;;;;14.30;12.37;;;;;;;26.57;57.48;99078.19;4390583;32;34974;-81
2023/07/17 01:47:50;;;;;;;13.07;11.63;;;;;;;26.60;57.28;99074.50;4390725;32;33972;-82
2023/07/17 01:50:18;;;;;;;13.85;12.35;;;;;;;26.74;56.68;99077.25;4390685;32;33804;-82
2023/07/17 01:52:45;;;;;;;13.07;11.68;;;;;;;26.60;56.86;99082.47;4390684;32;33850;-81
2023/07/17 01:55:13;;;;;;;15.38;10.90;;;;;;;26.64;56.55;99076.91;4390503;32;34973;-81
2023/07/17 01:57:40;;;;;;;14.07;11.40;;;;;;;26.62;56.46;99076.13;4390854;32;33361;-81
2023/07/17 02:00:12;;;;;;;15.55;11.25;;;;;;;26.76;55.97;99079.84;4390493;32;33949;-81
2023/07/17 02:02:40;;;;;;;12.27;10.80;;;;;;;26.58;56.14;99089.66;4389310;32;33739;-82
2023/07/17 02:05:08;;;;;;;12.02;9.52;;;;;;;26.62;56.11;99093.87;4389436;32;34758;-82
2023/07/17 02:07:35;;;;;;;12.80;11.02;;;;;;;26.62;56.09;99097.38;4390609;32;33635;-82
2023/07/17 02:10:03;;;;;;;15.10;10.52;;;;;;;26.64;55.94;99098.19;4390672;32;33522;-82
2023/07/17 02:12:32;;;;;;;13.40;10.45;;;;;;;26.67;55.70;99103.34;4390649;32;33638;-82
2023/07/17 02:15:01;;;;;;;11.63;10.20;;;;;;;26.65;55.60;99105.22;4389021;32;33377;-81
2023/07/17 02:17:30;;;;;;;14.23;10.52;;;;;;;26.57;55.85;99106.56;4390629;32;34551;-81
2023/07/17 02:19:58;;;;;;;11.68;9.90;;;;;;;26.51;56.24;99110.41;4390893;32;34620;-81
2023/07/17 02:22:28;;;;;;;13.50;10.70;;;;;;;26.56;56.29;99112.84;4390550;32;34050;-87
2023/07/17 02:24:56;;;;;;;13.32;10.60;;;;;;;26.53;56.00;99108.53;4390511;32;34229;-82
2023/07/17 02:27:24;;;;;;;13.18;10.35;;;;;;;26.55;56.20;99117.28;4389927;32;34163;-81
2023/07/17 02:29:53;;;;;;;14.40;10.80;;;;;;;26.63;55.96;99123.06;4390224;32;34628;-89
2023/07/17 02:32:21;;;;;;;13.90;10.80;;;;;;;26.69;55.71;99132.50;4389184;32;34931;-81
2023/07/17 02:34:50;;;;;;;11.68;10.50;;;;;;;26.59;55.83;99137.44;4390550;32;33758;-81
2023/07/17 02:37:18;;;;;;;16.05;10.85;;;;;;;26.56;55.85;99137.63;4390497;32;33706;-81
2023/07/17 02:39:45;;;;;;;15.77;10.80;;;;;;;26.47;56.07;99145.22;4376758;32;33636;-81
2023/07/17 02:42:13;;;;;;;14.90;11.20;;;;;;;26.50;56.12;99147.72;4390454;32;33931;-82
2023/07/17 02:44:40;;;;;;;12.50;11.20;;;;;;;26.35;56.76;99150.19;4390006;32;34767;-82
2023/07/17 02:47:08;;;;;;;13.60;11.45;;;;;;;26.28;57.39;99153.25;4364325;32;32433;-81
2023/07/17 02:49:37;;;;;;;14.10;11.70;;;;;;;26.04;58.50;99155.37;4389178;32;33689;-81
2023/07/17 02:52:06;;;;;;;16.40;11.15;;;;;;;26.28;57.70;99155.91;4376708;32;33474;-81
2023/07/17 02:54:36;;;;;;;13.70;12.15;;;;;;;26.48;56.96;99150.47;4376677;32;33557;-82
2023/07/17 02:57:06;;;;;;;15.35;11.07;;;;;;;26.17;57.97;99144.03;4377192;32;33003;-81
2023/07/17 02:59:33;;;;;;;15.95;12.25;;;;;;;26.34;57.35;99143.16;4390224;32;34530;-81
2023/07/17 03:02:04;;;;;;;13.38;11.68;;;;;;;26.25;57.57;99145.44;4390176;32;34973;-82
2023/07/17 03:04:31;;;;;;;13.55;12.15;;;;;;;26.42;57.03;99146.28;4390271;32;33953;-81
2023/07/17 03:06:59;;;;;;;15.05;12.05;;;;;;;26.27;57.33;99155.06;4390321;32;33761;-81
2023/07/17 03:09:27;;;;;;;13.60;11.95;;;;;;;26.18;57.51;99152.88;4389016;32;34596;-81
2023/07/17 03:11:55;;;;;;;15.93;12.43;;;;;;;26.16;57.66;99149.44;4388698;32;34980;-81
2023/07/17 03:14:23;;;;;;;16.48;12.45;;;;;;;26.09;57.88;99146.22;4390178;32;33877;-81
2023/07/17 03:16:50;;;;;;;14.55;12.25;;;;;;;26.12;57.66;99142.56;4390106;32;34355;-82
2023/07/17 03:19:18;;;;;;;13.27;11.45;;;;;;;26.22;57.37;99150.94;4390011;32;33955;-81
2023/07/17 03:21:46;;;;;;;13.30;11.57;;;;;;;26.24;57.16;99147.22;4390106;32;34110;-82
2023/07/17 03:24:13;;;;;;;15.00;11.77;;;;;;;26.13;57.42;99153.09;4390111;32;34079;-82
2023/07/17 03:26:41;;;;;;;15.30;11.73;;;;;;;26.25;57.13;99153.41;4376151;32;33798;-82
2023/07/17 03:29:08;;;;;;;14.32;11.12;;;;;;;26.38;56.62;99151.84;4390091;32;33956;-81
2023/07/17 03:31:37;;;;;;;13.43;11.52;;;;;;;26.28;57.00;99142.63;4389888;32;34245;-81
2023/07/17 03:34:05;;;;;;;13.18;11.48;;;;;;;26.23;57.21;99145.53;4389691;32;34775;-88
2023/07/17 03:36:32;;;;;;;11.68;10.48;;;;;;;26.20;57.29;99146.53;4389932;32;34124;-81
2023/07/17 03:38:59;;;;;;;13.98;10.93;;;;;;;26.25;57.16;99148.09;4375115;32;32273;-81
2023/07/17 03:41:28;;;;;;;14.57;11.57;;;;;;;26.31;57.06;99142.47;4388339;32;35132;-82
2023/07/17 03:43:58;;;;;;;13.90;11.07;;;;;;;26.34;57.10;99150.28;4389772;32;34984;-82
2023/07/17 03:46:26;;;;;;;14.68;10.95;;;;;;;26.40;56.89;99141.97;4390000;32;34575;-82
2023/07/17 03:48:55;;;;;;;13.62;11.10;;;;;;;26.36;57.28;99135.97;4389684;32;33908;-82
2023/07/17 03:51:23;;;;;;;14.00;11.65;;;;;;;26.33;57.88;99145.88;4390026;32;35336;-81
2023/07/17 03:53:51;;;;;;;13.32;10.70;;;;;;;26.57;57.28;99146.44;4389954;32;35091;-85
2023/07/17 03:56:19;;;;;;;12.52;11.18;;;;;;;26.53;57.75;99143.09;4389732;32;33265;-81
2023/07/17 03:58:48;;;;;;;16.02;11.07;;;;;;;26.50;58.09;99145.91;4389656;32;33521;-82
2023/07/17 04:01:16;;;;;;;13.70;11.27;;;;;;;26.59;57.54;99150.72;4375387;32;34302;-82
2023/07/17 04:03:45;;;;;;;12.88;10.63;;;;;;;26.68;57.40;99150.25;4389740;32;33751;-81
2023/07/17 04:06:14;;;;;;;13.25;10.73;;;;;;;26.81;56.70;99147.78;4389601;32;34667;-86
2023/07/17 04:08:42;;;;;;;14.55;10.90;;;;;;;26.89;56.58;99150.88;4375392;32;32998;-82
2023/07/17 04:11:09;;;;;;;12.07;10.68;;;;;;;26.82;56.97;99153.97;4389456;32;34151;-81
2023/07/17 04:13:37;;;;;;;12.73;9.80;;;;;;;26.79;57.23;99143.50;4375697;32;33727;-81
2023/07/17 04:16:05;;;;;;;12.45;10.40;;;;;;;27.14;56.12;99141.59;4389410;32;33658;-82
2023/07/17 04:18:33;;;;;;;13.93;11.12;;;;;;;27.22;56.03;99146.50;4389455;32;33466;-81
2023/07/17 04:21:01;;;;;;;11.82;10.35;;;;;;;27.31;55.56;99140.66;4389275;32;33740;-81
2023/07/17 04:23:29;;;;;;;14.15;9.90;;;;;;;27.48;55.59;99137.03;4389256;32;34191;-82
2023/07/17 04:25:57;;;;;;;13.00;10.25;;;;;;;27.67;55.34;99136.84;4389416;32;33222;-81
2023/07/17 04:28:24;;;;;;;12.98;10.02;;;;;;;27.88;54.92;99139.16;4389483;32;33680;-82
2023/07/17 04:30:52;;;;;;;11.57;9.27;;;;;;;28.08;54.64;99139.78;4389590;32;33929;-81
2023/07/17 04:33:20;;;;;;;13.13;9.43;;;;;;;28.30;53.80;99148.22;4389519;32;34940;-81
2023/07/17 04:35:48;;;;;;;12.10;9.50;;;;;;;28.57;53.20;99145.69;4389325;32;33820;-82
2023/07/17 04:38:15;;;;;;;13.20;10.13;;;;;;;28.75;52.88;99142.81;4388931;32;34610;-82
2023/07/17 04:40:43;;;;;;;14.00;9.68;;;;;;;29.00;52.20;99148.37;4388973;32;33639;-82
2023/07/17 04:43:11;;;;;;;11.15;8.80;;;;;;;29.22;52.03;99149.69;4375435;32;33841;-81
2023/07/17 04:45:44;;;;;;;16.55;9.43;;;;;;;29.48;51.14;99146.19;4388733;32;34380;-82
2023/07/17 04:48:12;;;;;;;12.18;9.30;;;;;;;29.76;50.48;99144.38;4388927;32;34044;-82
2023/07/17 04:50:44;;;;;;;12.00;9.07;;;;;;;30.10;49.99;99142.97;4389511;32;34993;-82
2023/07/17 04:53:12;;;;;;;13.15;9.05;;;;;;;30.46;49.39;99155.69;4377840;32;34292;-82
2023/07/17 04:55:40;;;;;;;12.60;9.23;;;;;;;30.54;49.51;99145.28;4377040;32;33346;-82
2023/07/17 04:58:07;;;;;;;10.93;8.48;;;;;;;30.66;48.89;99143.56;4390954;32;33517;-82
2023/07/17 05:00:36;;;;;;;11.88;8.52;;;;;;;31.22;48.06;99152.09;4391416;32;34417;-82
2023/07/17 05:03:04;;;;;;;11.10;8.45;;;;;;;31.11;47.00;99149.31;4391443;32;34576;-82
2023/07/17 05:05:31;;;;;;;12.65;8.35;;;;;;;31.44;47.19;99145.16;4391470;32;33258;-88
2023/07/17 05:07:59;;;;;;;11.15;8.15;;;;;;;31.22;47.37;99151.22;4391005;32;34477;-82
2023/07/17 05:10:27;;;;;;;12.93;9.05;;;;;;;31.47;47.18;99148.47;4377447;32;32325;-82
2023/07/17 05:12:54;;;;;;;9.73;7.93;;;;;;;31.76;46.38;99148.16;4377067;32;32891;-82
2023/07/17 05:15:22;;;;;;;12.55;8.63;;;;;;;31.98;44.79;99150.97;4391271;32;33855;-82
2023/07/17 05:17:50;;;;;;;14.38;9.07;;;;;;;32.13;44.52;99148.94;4391267;32;34872;-82
2023/07/17 05:20:18;;;;;;;12.63;8.25;;;;;;;32.26;44.43;99148.84;4390870;32;33719;-83
2023/07/17 05:22:45;;;;;;;10.10;8.05;;;;;;;31.90;41.29;99147.16;4390917;32;34102;-83
2023/07/17 05:25:13;;;;;;;11.55;7.80;;;;;;;32.30;43.40;99144.94;4391039;32;34413;-84
2023/07/17 05:27:41;;;;;;;10.25;7.60;;;;;;;32.30;42.52;99138.72;4390724;32;34098;-82
2023/07/17 05:30:09;;;;;;;13.05;7.97;;;;;;;32.60;42.88;99143.56;4390816;32;33650;-82
2023/07/17 05:32:37;;;;;;;9.25;7.50;;;;;;;32.68;42.90;99143.81;4390892;32;34959;-83
2023/07/17 05:35:05;;;;;;;11.15;7.20;;;;;;;32.81;42.03;99146.38;4377292;32;34351;-83
2023/07/17 05:37:33;;;;;;;11.57;6.95;;;;;;;32.52;40.51;99140.63;4377441;32;33585;-83
2023/07/17 05:40:03;;;;;;;7.20;5.82;;;;;;;32.59;39.98;99149.91;4391050;32;34107;-83
2023/07/17 05:42:30;;;;;;;10.95;6.35;;;;;;;32.61;39.02;99142.56;4390649;32;34194;-83
2023/07/17 05:44:59;;;;;;;9.40;6.93;;;;;;;32.79;40.32;99146.50;4377609;32;34316;-83
2023/07/17 05:47:26;;;;;;;9.65;6.22;;;;;;;33.03;41.22;99148.22;4391165;32;33990;-83
2023/07/17 05:49:54;;;;;;;10.73;6.62;;;;;;;32.63;38.05;99144.19;4390764;32;34602;-83
2023/07/17 05:52:22;;;;;;;10.35;6.22;;;;;;;32.27;39.50;99144.31;4390690;32;34762;-83
2023/07/17 05:54:49;;;;;;;9.60;6.05;;;;;;;32.18;41.69;99146.75;4390830;32;33716;-83
2023/07/17 05:57:17;;;;;;;9.38;5.95;;;;;;;32.22;39.67;99147.37;4390703;32;34800;-84
2023/07/17 05:59:44;;;;;;;8.10;6.07;;;;;;;32.72;38.71;99139.91;4391039;32;35102;-83
2023/07/17 06:02:12;;;;;;;11.32;6.28;;;;;;;32.89;38.93;99149.31;4389739;32;33939;-84
2023/07/17 06:04:40;;;;;;;8.52;6.03;;;;;;;32.53;38.40;99147.69;4390761;32;34515;-84
2023/07/17 06:07:08;;;;;;;8.90;5.47;;;;;;;32.67;37.94;99152.84;4390842;32;33706;-83
2023/07/17 06:09:35;;;;;;;9.32;5.90;;;;;;;32.81;38.64;99155.28;4377001;32;33079;-84
2023/07/17 06:12:03;;;;;;;8.63;5.70;;;;;;;33.24;38.63;99151.88;4390572;32;34968;-83
2023/07/17 06:14:31;;;;;;;11.70;6.57;;;;;;;32.38;37.70;99150.56;4390660;32;33552;-84
2023/07/17 06:16:58;;;;;;;13.90;6.30;;;;;;;32.93;36.78;99148.97;4390610;32;33570;-84
2023/07/17 06:19:26;;;;;;;8.80;5.87;;;;;;;33.07;37.62;99150.56;4390670;32;33647;-84
2023/07/17 06:21:54;;;;;;;9.40;6.15;;;;;;;32.93;37.77;99150.78;4390475;32;34075;-83
2023/07/17 06:24:21;;;;;;;10.45;5.90;;;;;;;32.82;38.00;99153.47;4390511;32;33821;-83
2023/07/17 06:26:49;;;;;;;7.93;5.30;;;;;;;32.96;37.92;99145.19;4389252;32;33640;-85
2023/07/17 06:29:16;;;;;;;9.38;5.50;;;;;;;32.70;36.38;99153.47;4390495;32;34159;-84
2023/07/17 06:31:44;;;;;;;10.15;5.62;;;;;;;32.05;37.78;99151.34;4390584;32;33835;-85
2023/07/17 06:34:11;;;;;;;9.48;5.93;;;;;;;32.37;39.56;99159.59;4390529;32;33974;-84
2023/07/17 06:36:39;;;;;;;7.53;4.87;;;;;;;32.74;38.73;99151.38;4390199;32;34773;-84
2023/07/17 06:39:07;;;;;;;6.97;5.35;;;;;;;32.97;37.59;99159.47;4390561;32;33762;-83
2023/07/17 06:41:34;;;;;;;7.60;5.40;;;;;;;33.32;37.76;99153.94;4376956;32;34438;-86
2023/07/17 06:44:02;;;;;;;10.57;5.70;;;;;;;33.02;37.57;99151.91;4390533;32;33348;-83
2023/07/17 06:46:29;;;;;;;8.73;5.32;;;;;;;33.12;37.11;99144.81;4389232;32;34328;-83
2023/07/17 06:48:57;;;;;;;9.57;6.32;;;;;;;33.23;37.50;99155.53;4376563;32;34448;-84
2023/07/17 06:51:24;;;;;;;10.30;6.78;;;;;;;33.17;37.41;99148.81;4390321;32;33585;-84
2023/07/17 06:53:52;;;;;;;11.10;6.37;;;;;;;32.80;38.84;99141.97;4390361;32;33791;-84
2023/07/17 06:56:21;;;;;;;9.18;5.97;;;;;;;33.08;38.14;99146.03;4376715;32;34648;-85
2023/07/17 06:58:48;;;;;;;8.48;6.37;;;;;;;33.53;37.45;99146.00;4376770;32;35099;-85
2023/07/17 07:01:15;;;;;;;13.25;7.05;;;;;;;33.04;37.83;99141.91;4390090;32;33655;-83
2023/07/17 07:03:43;;;;;;;10.02;6.45;;;;;;;33.31;36.93;99142.34;4390383;32;33799;-85
2023/07/17 07:06:11;;;;;;;9.70;6.00;;;;;;;33.48;37.38;99137.44;4390185;32;34900;-83
2023/07/17 07:08:40;;;;;;;9.50;6.72;;;;;;;33.55;37.67;99139.47;4390112;32;33904;-84
2023/07/17 07:11:10;;;;;;;9.95;7.22;;;;;;;33.80;36.13;99138.31;4376659;32;34918;-84
2023/07/17 07:13:38;;;;;;;9.68;6.62;;;;;;;33.57;36.47;99142.06;4390157;32;33522;-84
2023/07/17 07:16:06;;;;;;;11.63;6.93;;;;;;;34.03;37.55;99143.62;4389942;32;34669;-85
2023/07/17 07:18:33;;;;;;;10.98;6.12;;;;;;;33.69;37.43;99142.88;4389901;32;34113;-84
2023/07/17 07:21:01;;;;;;;8.57;6.78;;;;;;;33.87;35.87;99141.34;4376415;32;33992;-84
2023/07/17 07:23:28;;;;;;;10.10;5.65;;;;;;;34.14;36.48;99143.56;4389965;32;33585;-85
2023/07/17 07:25:56;;;;;;;7.75;6.00;;;;;;;34.60;35.30;99147.69;4390070;32;33733;-84
2023/07/17 07:28:24;;;;;;;9.27;5.60;;;;;;;34.39;33.78;99143.12;4390052;32;34109;-85
2023/07/17 07:30:56;;;;;;;9.95;5.80;;;;;;;33.87;35.55;99133.28;4376184;32;34758;-86
2023/07/17 07:33:24;;;;;;;9.15;5.53;;;;;;;34.02;36.20;99141.88;4376218;32;32830;-86
2023/07/17 07:35:51;;;;;;;9.00;5.78;;;;;;;34.21;34.76;99135.78;4389880;32;33286;-84
2023/07/17 07:38:19;;;;;;;10.10;5.62;;;;;;;34.05;33.78;99128.19;4389972;32;33835;-84
2023/07/17 07:40:47;;;;;;;10.02;5.75;;;;;;;34.24;33.58;99131.00;4389964;32;34197;-85
2023/07/17 07:43:15;;;;;;;7.85;5.15;;;;;;;34.39;34.61;99126.97;4389923;32;33269;-84
2023/07/17 07:45:42;;;;;;;9.05;5.97;;;;;;;34.07;33.94;99124.37;4389703;32;33438;-84
2023/07/17 07:48:10;;;;;;;8.73;5.60;;;;;;;34.01;35.58;99126.75;4376085;32;34396;-84
2023/07/17 07:50:37;;;;;;;9.77;6.00;;;;;;;34.07;35.15;99129.75;4389836;32;34039;-85
2023/07/17 07:53:05;;;;;;;9.02;6.18;;;;;;;34.36;34.85;99134.47;4388477;32;33786;-84
2023/07/17 07:55:33;;;;;;;9.57;5.85;;;;;;;34.32;35.30;99133.91;4389654;32;33992;-84
2023/07/17 07:58:00;;;;;;;9.00;5.95;;;;;;;34.32;33.26;99135.72;4389624;32;34100;-85
2023/07/17 08:00:28;;;;;;;11.95;6.07;;;;;;;34.35;34.26;99127.38;4389847;32;34093;-85
2023/07/17 08:02:56;;;;;;;9.52;6.20;;;;;;;34.36;34.02;99134.47;4389537;32;33784;-84
2023/07/17 08:05:23;;;;;;;10.82;5.80;;;;;;;34.20;34.46;99134.09;4375959;32;33753;-84
2023/07/17 08:07:51;;;;;;;10.13;6.53;;;;;;;34.16;34.98;99138.03;4389601;32;33951;-84
2023/07/17 08:10:19;;;;;;;9.98;6.55;;;;;;;34.14;34.22;99136.34;4389665;32;34445;-86
2023/07/17 08:12:46;;;;;;;12.35;6.35;;;;;;;33.50;34.49;99140.84;4389653;32;33791;-84
2023/07/17 08:15:14;;;;;;;14.27;6.47;;;;;;;33.83;34.38;99138.06;4389631;32;33205;-84
2023/07/17 08:17:41;;;;;;;11.77;6.25;;;;;;;34.25;34.74;99131.87;4389573;32;34736;-85
2023/07/17 08:20:09;;;;;;;11.68;6.43;;;;;;;34.44;34.79;99125.72;4375744;32;34044;-84
2023/07/17 08:22:36;;;;;;;9.30;6.37;;;;;;;34.48;33.27;99129.88;4389422;32;33573;-85
2023/07/17 08:25:05;;;;;;;9.65;6.60;;;;;;;34.90;35.10;99129.84;4389337;32;33992;-85
2023/07/17 08:27:32;;;;;;;11.18;6.80;;;;;;;34.67;34.00;99127.31;4391444;32;34260;-85
2023/07/17 08:30:00;;;;;;;11.60;6.35;;;;;;;34.59;34.03;99132.53;4391423;32;34962;-85
2023/07/17 08:32:27;;;;;;;11.23;6.62;;;;;;;34.45;33.80;99132.84;4391210;32;33857;-85
2023/07/17 08:34:55;;;;;;;13.32;7.20;;;;;;;34.09;35.30;99126.94;4391137;32;34834;-85
2023/07/17 08:37:23;;;;;;;9.52;6.82;;;;;;;34.56;34.38;99130.94;4377583;32;35160;-84
2023/07/17 08:39:51;;;;;;;11.70;7.18;;;;;;;34.47;35.35;99142.47;4391284;32;34232;-86
2023/07/17 08:42:18;;;;;;;9.93;6.90;;;;;;;34.64;34.08;99138.34;4391088;32;33847;-85
2023/07/17 08:44:45;;;;;;;9.35;6.95;;;;;;;34.70;34.05;99143.22;4391311;32;34596;-86
2023/07/17 08:47:13;;;;;;;9.32;6.75;;;;;;;34.91;34.23;99145.84;4391103;32;34668;-84
2023/07/17 08:49:41;;;;;;;11.48;6.78;;;;;;;35.23;34.95;99148.41;4391096;32;35018;-85
2023/07/17 08:52:10;;;;;;;11.32;6.78;;;;;;;35.06;34.58;99139.13;4391186;32;33735;-85
2023/07/17 08:54:38;;;;;;;11.20;7.12;;;;;;;34.84;34.69;99144.69;4390144;32;33885;-85
2023/07/17 08:57:06;;;;;;;14.57;7.25;;;;;;;35.35;34.73;99146.44;4390967;32;35106;-85
2023/07/17 08:59:34;;;;;;;10.77;7.07;;;;;;;35.15;34.00;99137.44;4364825;32;33636;-86
2023/07/17 09:02:03;;;;;;;9.70;7.00;;;;;;;35.56;32.82;99130.19;4377111;32;33583;-84
2023/07/17 09:04:32;;;;;;;13.93;7.25;;;;;;;35.48;33.53;99148.88;4377431;32;34049;-85
2023/07/17 09:07:00;;;;;;;11.05;6.45;;;;;;;35.06;32.62;99143.66;4377501;32;33753;-85
2023/07/17 09:09:28;;;;;;;11.77;6.80;;;;;;;35.32;33.28;99142.19;4377791;32;34810;-86
2023/07/17 09:12:11;;;;;;;13.93;6.85;;;;;;;35.32;32.62;99134.09;4391418;32;33385;-85
2023/07/17 09:14:39;;;;;;;8.82;6.30;;;;;;;35.41;33.07;99136.94;4364961;32;33116;-83
2023/07/17 09:17:09;;;;;;;11.75;6.85;;;;;;;35.81;31.81;99135.03;4390722;32;34970;-85
2023/07/17 09:19:38;;;;;;;14.13;6.85;;;;;;;35.52;33.67;99132.31;4377668;32;34931;-84
2023/07/17 09:22:07;;;;;;;15.32;7.12;;;;;;;35.23;33.00;99134.94;4391059;32;34251;-85
2023/07/17 09:24:36;;;;;;;12.10;6.50;;;;;;;35.12;32.76;99132.34;4377320;32;34730;-86
2023/07/17 09:27:06;;;;;;;11.15;7.22;;;;;;;35.17;33.97;99137.31;4390986;32;33758;-86
2023/07/17 09:29:40;;;;;;;12.05;7.43;;;;;;;35.47;32.95;99131.00;4377656;32;34841;-86
2023/07/17 09:32:17;;;;;;;11.05;6.50;;;;;;;35.82;33.34;99131.31;4377419;32;33714;-85
2023/07/17 09:35:05;;;;;;;9.77;7.53;;;;;;;36.01;31.24;99130.50;4377575;32;34835;-86
2023/07/17 09:37:34;;;;;;;15.48;6.97;;;;;;;35.45;32.60;99127.56;4390719;32;34514;-85
2023/07/17 09:40:07;;;;;;;13.15;7.45;;;;;;;35.57;32.39;99138.16;4390783;32;34926;-86
2023/07/17 09:42:34;;;;;;;12.32;7.22;;;;;;;35.70;33.71;99129.78;4377482;32;33908;-86
2023/07/17 09:45:03;;;;;;;11.73;7.53;;;;;;;35.67;32.58;99124.66;4377110;32;34654;-85
2023/07/17 09:47:34;;;;;;;10.30;7.37;;;;;;;35.58;33.52;99130.91;4377061;32;34026;-86
2023/07/17 09:50:03;;;;;;;12.90;7.85;;;;;;;35.81;32.82;99129.63;4390758;32;34897;-86
2023/07/17 09:52:31;;;;;;;12.20;7.78;;;;;;;36.12;32.75;99120.56;4377091;32;34401;-86
2023/07/17 09:55:02;;;;;;;10.40;6.90;;;;;;;36.17;31.32;99121.81;4390716;32;34036;-84
2023/07/17 09:57:37;;;;;;;10.10;7.47;;;;;;;36.06;31.69;99111.16;4377436;32;34778;-86
2023/07/17 10:00:18;;;;;;;10.93;6.62;;;;;;;35.88;32.22;99123.66;4364331;32;33572;-86
2023/07/17 10:03:05;;;;;;;11.43;7.65;;;;;;;35.78;33.04;99119.13;4378295;32;33172;-85
2023/07/17 10:05:33;;;;;;;11.63;7.50;;;;;;;36.28;31.86;99116.25;4389357;32;33626;-85
2023/07/17 10:08:03;;;;;;;12.43;7.50;;;;;;;35.97;32.37;99117.41;4390756;32;33732;-85
2023/07/17 10:10:31;;;;;;;12.40;7.82;;;;;;;36.12;32.09;99120.56;4389505;32;34954;-86
2023/07/17 10:12:59;;;;;;;12.52;7.65;;;;;;;35.83;32.60;99116.84;4390412;32;33627;-85
2023/07/17 10:15:27;;;;;;;13.00;7.65;;;;;;;36.21;31.21;99116.97;4376979;32;33792;-84
2023/07/17 10:17:59;;;;;;;9.48;7.30;;;;;;;36.21;31.17;99103.47;4376991;32;33794;-85
2023/07/17 10:20:29;;;;;;;11.12;6.80;;;;;;;36.08;32.84;99102.94;4364677;32;34403;-86
2023/07/17 10:22:57;;;;;;;10.70;7.43;;;;;;;36.26;31.30;99106.63;4390789;32;33476;-87
2023/07/17 10:25:28;;;;;;;10.95;7.43;;;;;;;36.47;31.79;99101.03;4377107;32;35094;-85
2023/07/17 10:28:02;;;;;;;12.65;6.75;;;;;;;36.37;32.06;99097.47;4376885;32;33391;-86
2023/07/17 10:30:36;;;;;;;10.02;6.97;;;;;;;36.74;32.09;99095.66;4377023;32;34249;-84
2023/07/17 10:33:14;;;;;;;11.90;7.47;;;;;;;36.49;31.03;99090.94;4376875;32;33220;-85
2023/07/17 10:35:52;;;;;;;9.88;6.72;;;;;;;36.38;32.00;99086.53;4376971;32;34825;-86
2023/07/17 10:38:28;;;;;;;11.93;7.87;;;;;;;36.03;32.11;99084.50;4376874;32;34069;-85
2023/07/17 10:41:04;;;;;;;13.45;7.35;;;;;;;36.21;32.07;99082.72;4376902;32;35183;-86
2023/07/17 10:43:34;;;;;;;12.32;7.00;;;;;;;36.26;32.76;99076.91;4390155;32;34665;-87
2023/07/17 10:46:08;;;;;;;11.20;7.65;;;;;;;36.34;32.55;99082.44;4389259;32;34024;-86
2023/07/17 10:48:37;;;;;;;12.20;7.50;;;;;;;36.21;32.04;99074.62;4389670;32;34881;-86
2023/07/17 10:51:04;;;;;;;11.63;6.87;;;;;;;36.19;32.37;99079.34;4390409;32;34576;-86
2023/07/17 10:53:32;;;;;;;12.48;8.23;;;;;;;36.01;34.09;99073.84;4390406;32;33421;-86
2023/07/17 10:55:59;;;;;;;13.13;7.75;;;;;;;36.16;32.40;99074.22;4390037;32;34062;-86
2023/07/17 10:58:27;;;;;;;12.57;7.43;;;;;;;36.28;33.52;99075.75;4390545;32;34044;-84
2023/07/17 11:00:55;;;;;;;13.40;8.30;;;;;;;36.14;33.87;99076.25;4376391;32;34225;-84
2023/07/17 11:03:26;;;;;;;16.02;8.35;;;;;;;36.65;32.34;99072.25;4390148;32;33428;-84
2023/07/17 11:05:57;;;;;;;15.57;8.15;;;;;;;35.93;33.25;99076.38;4390257;32;34634;-87
2023/07/17 11:08:28;;;;;;;13.88;8.13;;;;;;;36.46;33.61;99072.31;4390296;32;34822;-86
2023/07/17 11:10:56;;;;;;;14.75;8.05;;;;;;;36.53;31.39;99068.03;4389997;32;34013;-85
2023/07/17 11:13:30;;;;;;;9.07;7.87;;;;;;;36.22;34.06;99053.91;4376688;32;33534;-86
2023/07/17 11:16:08;;;;;;;10.90;7.40;;;;;;;36.21;34.51;99066.53;4389890;32;33823;-86
2023/07/17 11:18:52;;;;;;;9.85;7.15;;;;;;;36.72;31.34;99061.69;4376515;32;34869;-85
2023/07/17 11:21:25;;;;;;;9.32;6.80;;;;;;;36.61;29.77;99056.50;4389969;32;33205;-86
2023/07/17 11:24:06;;;;;;;11.40;6.70;;;;;;;37.01;29.68;99045.34;4390340;32;33096;-86
2023/07/17 11:26:34;;;;;;;10.93;7.28;;;;;;;36.68;29.69;99050.34;4389713;32;33808;-87
2023/07/17 11:29:02;;;;;;;9.38;7.15;;;;;;;36.51;30.20;99041.16;4388752;32;34152;-86
2023/07/17 11:31:33;;;;;;;11.35;7.22;;;;;;;36.15;30.83;99040.16;4390061;32;34243;-84